sensor_id;sensor_type;location;lat;lon;timestamp;P1;durP1;ratioP1;P2;durP2;ratioP2
28481;SDS011;15703;49.588;6.260;2023-03-21T00:01:59;12.80;;;6.10;;
28481;SDS011;15703;49.588;6.260;2023-03-21T00:04:22;13.10;;;6.20;;
28481;SDS011;15703;49.588;6.260;2023-03-21T00:06:44;7.70;;;5.80;;
28481;SDS011;15703;49.588;6.260;2023-03-21T00:09:07;6.07;;;5.47;;
28481;SDS011;15703;49.588;6.260;2023-03-21T00:11:29;9.90;;;6.10;;
28481;SDS011;15703;49.588;6.260;2023-03-21T00:13:51;10.10;;;6.93;;
28481;SDS011;15703;49.588;6.260;2023-03-21T00:16:22;9.23;;;5.47;;
28481;SDS011;15703;49.588;6.260;2023-03-21T00:19:06;8.10;;;5.80;;
28481;SDS011;15703;49.588;6.260;2023-03-21T00:21:29;7.80;;;5.40;;
28481;SDS011;15703;49.588;6.260;2023-03-21T00:24:12;9.23;;;5.70;;
28481;SDS011;15703;49.588;6.260;2023-03-21T00:26:34;8.10;;;5.77;;
28481;SDS011;15703;49.588;6.260;2023-03-21T00:28:58;8.00;;;5.80;;
28481;SDS011;15703;49.588;6.260;2023-03-21T00:31:20;10.43;;;5.17;;
28481;SDS011;15703;49.588;6.260;2023-03-21T00:33:43;7.07;;;5.57;;
28481;SDS011;15703;49.588;6.260;2023-03-21T00:36:06;8.40;;;5.80;;
28481;SDS011;15703;49.588;6.260;2023-03-21T00:38:29;8.67;;;4.90;;
28481;SDS011;15703;49.588;6.260;2023-03-21T00:40:53;7.27;;;4.80;;
28481;SDS011;15703;49.588;6.260;2023-03-21T00:43:19;6.20;;;5.27;;
28481;SDS011;15703;49.588;6.260;2023-03-21T00:45:50;6.00;;;5.27;;
28481;SDS011;15703;49.588;6.260;2023-03-21T00:48:13;6.70;;;5.13;;
28481;SDS011;15703;49.588;6.260;2023-03-21T00:50:35;5.17;;;4.67;;
28481;SDS011;15703;49.588;6.260;2023-03-21T00:52:59;5.30;;;4.80;;
28481;SDS011;15703;49.588;6.260;2023-03-21T00:55:21;9.00;;;5.87;;
28481;SDS011;15703;49.588;6.260;2023-03-21T00:57:43;7.13;;;5.57;;
28481;SDS011;15703;49.588;6.260;2023-03-21T01:00:18;6.60;;;4.60;;
28481;SDS011;15703;49.588;6.260;2023-03-21T01:02:40;6.10;;;4.60;;
28481;SDS011;15703;49.588;6.260;2023-03-21T01:05:26;8.90;;;6.10;;
28481;SDS011;15703;49.588;6.260;2023-03-21T01:08:18;7.83;;;5.87;;
28481;SDS011;15703;49.588;6.260;2023-03-21T01:10:51;6.67;;;5.83;;
28481;SDS011;15703;49.588;6.260;2023-03-21T01:13:14;10.20;;;6.40;;
28481;SDS011;15703;49.588;6.260;2023-03-21T01:15:41;9.87;;;6.60;;
28481;SDS011;15703;49.588;6.260;2023-03-21T01:18:04;11.43;;;6.27;;
28481;SDS011;15703;49.588;6.260;2023-03-21T01:20:26;11.33;;;7.40;;
28481;SDS011;15703;49.588;6.260;2023-03-21T01:22:49;10.20;;;7.00;;
28481;SDS011;15703;49.588;6.260;2023-03-21T01:25:11;13.20;;;6.83;;
28481;SDS011;15703;49.588;6.260;2023-03-21T01:27:43;8.70;;;6.50;;
28481;SDS011;15703;49.588;6.260;2023-03-21T01:30:06;9.20;;;7.83;;
28481;SDS011;15703;49.588;6.260;2023-03-21T01:32:39;10.30;;;6.70;;
28481;SDS011;15703;49.588;6.260;2023-03-21T01:35:02;8.47;;;6.37;;
28481;SDS011;15703;49.588;6.260;2023-03-21T01:37:24;12.30;;;7.27;;
28481;SDS011;15703;49.588;6.260;2023-03-21T01:39:46;12.00;;;7.77;;
28481;SDS011;15703;49.588;6.260;2023-03-21T01:42:11;12.40;;;7.80;;
28481;SDS011;15703;49.588;6.260;2023-03-21T01:44:50;10.67;;;6.93;;
28481;SDS011;15703;49.588;6.260;2023-03-21T01:47:13;10.63;;;6.63;;
28481;SDS011;15703;49.588;6.260;2023-03-21T01:49:41;7.67;;;6.27;;
28481;SDS011;15703;49.588;6.260;2023-03-21T01:52:20;8.60;;;5.90;;
28481;SDS011;15703;49.588;6.260;2023-03-21T01:54:57;11.30;;;6.37;;
28481;SDS011;15703;49.588;6.260;2023-03-21T01:57:24;9.43;;;6.80;;
28481;SDS011;15703;49.588;6.260;2023-03-21T02:00:05;10.10;;;6.37;;
28481;SDS011;15703;49.588;6.260;2023-03-21T02:02:47;9.70;;;6.30;;
28481;SDS011;15703;49.588;6.260;2023-03-21T02:05:43;17.00;;;7.20;;
28481;SDS011;15703;49.588;6.260;2023-03-21T02:08:11;8.77;;;6.47;;
28481;SDS011;15703;49.588;6.260;2023-03-21T02:10:34;12.40;;;6.90;;
28481;SDS011;15703;49.588;6.260;2023-03-21T02:12:59;10.70;;;7.73;;
28481;SDS011;15703;49.588;6.260;2023-03-21T02:15:31;16.10;;;8.27;;
28481;SDS011;15703;49.588;6.260;2023-03-21T02:23:18;14.40;;;7.30;;
28481;SDS011;15703;49.588;6.260;2023-03-21T02:28:23;10.10;;;6.53;;
28481;SDS011;15703;49.588;6.260;2023-03-21T02:33:52;10.57;;;7.57;;
28481;SDS011;15703;49.588;6.260;2023-03-21T02:41:34;10.10;;;7.10;;
28481;SDS011;15703;49.588;6.260;2023-03-21T02:44:45;12.73;;;7.17;;
28481;SDS011;15703;49.588;6.260;2023-03-21T02:52:05;9.50;;;6.40;;
28481;SDS011;15703;49.588;6.260;2023-03-21T02:54:39;9.07;;;6.23;;
28481;SDS011;15703;49.588;6.260;2023-03-21T02:57:11;7.73;;;5.80;;
28481;SDS011;15703;49.588;6.260;2023-03-21T02:59:34;6.77;;;5.93;;
28481;SDS011;15703;49.588;6.260;2023-03-21T03:02:09;7.47;;;5.90;;
28481;SDS011;15703;49.588;6.260;2023-03-21T03:04:32;7.90;;;5.67;;
28481;SDS011;15703;49.588;6.260;2023-03-21T03:12:41;8.70;;;6.87;;
28481;SDS011;15703;49.588;6.260;2023-03-21T03:17:35;11.87;;;7.73;;
28481;SDS011;15703;49.588;6.260;2023-03-21T03:23:03;8.80;;;6.67;;
28481;SDS011;15703;49.588;6.260;2023-03-21T03:25:43;12.20;;;6.50;;
28481;SDS011;15703;49.588;6.260;2023-03-21T03:28:08;9.77;;;7.50;;
28481;SDS011;15703;49.588;6.260;2023-03-21T03:30:32;10.23;;;7.43;;
28481;SDS011;15703;49.588;6.260;2023-03-21T03:33:06;9.23;;;7.13;;
28481;SDS011;15703;49.588;6.260;2023-03-21T03:35:30;9.20;;;6.87;;
28481;SDS011;15703;49.588;6.260;2023-03-21T03:37:54;12.73;;;7.20;;
28481;SDS011;15703;49.588;6.260;2023-03-21T03:43:36;12.57;;;6.83;;
28481;SDS011;15703;49.588;6.260;2023-03-21T03:46:08;9.00;;;6.10;;
28481;SDS011;15703;49.588;6.260;2023-03-21T03:48:34;11.83;;;7.43;;
28481;SDS011;15703;49.588;6.260;2023-03-21T03:51:09;11.10;;;7.37;;
28481;SDS011;15703;49.588;6.260;2023-03-21T03:54:01;11.43;;;6.80;;
28481;SDS011;15703;49.588;6.260;2023-03-21T03:56:25;9.97;;;6.90;;
28481;SDS011;15703;49.588;6.260;2023-03-21T03:58:49;11.93;;;7.20;;
28481;SDS011;15703;49.588;6.260;2023-03-21T04:01:15;7.47;;;6.43;;
28481;SDS011;15703;49.588;6.260;2023-03-21T04:03:38;10.47;;;7.67;;
28481;SDS011;15703;49.588;6.260;2023-03-21T04:06:11;9.43;;;6.57;;
28481;SDS011;15703;49.588;6.260;2023-03-21T04:08:33;9.63;;;7.07;;
28481;SDS011;15703;49.588;6.260;2023-03-21T04:10:58;10.83;;;6.80;;
28481;SDS011;15703;49.588;6.260;2023-03-21T04:13:21;9.77;;;6.07;;
28481;SDS011;15703;49.588;6.260;2023-03-21T04:15:55;10.77;;;7.13;;
28481;SDS011;15703;49.588;6.260;2023-03-21T04:18:17;8.67;;;6.97;;
28481;SDS011;15703;49.588;6.260;2023-03-21T04:20:39;8.63;;;6.60;;
28481;SDS011;15703;49.588;6.260;2023-03-21T04:23:06;10.70;;;6.60;;
28481;SDS011;15703;49.588;6.260;2023-03-21T04:25:28;11.30;;;7.30;;
28481;SDS011;15703;49.588;6.260;2023-03-21T04:27:55;11.33;;;6.67;;
28481;SDS011;15703;49.588;6.260;2023-03-21T04:30:31;11.17;;;6.77;;
28481;SDS011;15703;49.588;6.260;2023-03-21T04:33:04;10.77;;;6.90;;
28481;SDS011;15703;49.588;6.260;2023-03-21T04:35:27;8.77;;;6.27;;
28481;SDS011;15703;49.588;6.260;2023-03-21T04:37:51;10.53;;;6.43;;
28481;SDS011;15703;49.588;6.260;2023-03-21T04:40:13;11.17;;;6.97;;
28481;SDS011;15703;49.588;6.260;2023-03-21T04:42:39;9.50;;;6.60;;
28481;SDS011;15703;49.588;6.260;2023-03-21T04:45:02;6.77;;;5.80;;
28481;SDS011;15703;49.588;6.260;2023-03-21T04:47:24;12.13;;;6.30;;
28481;SDS011;15703;49.588;6.260;2023-03-21T04:49:48;9.67;;;7.30;;
28481;SDS011;15703;49.588;6.260;2023-03-21T04:52:11;8.73;;;6.70;;
28481;SDS011;15703;49.588;6.260;2023-03-21T04:54:34;12.53;;;6.90;;
28481;SDS011;15703;49.588;6.260;2023-03-21T04:56:57;8.77;;;5.87;;
28481;SDS011;15703;49.588;6.260;2023-03-21T04:59:21;9.97;;;6.73;;
28481;SDS011;15703;49.588;6.260;2023-03-21T05:01:44;10.13;;;7.00;;
28481;SDS011;15703;49.588;6.260;2023-03-21T05:04:06;10.07;;;6.50;;
28481;SDS011;15703;49.588;6.260;2023-03-21T05:06:29;9.50;;;6.20;;
28481;SDS011;15703;49.588;6.260;2023-03-21T05:08:53;9.60;;;6.47;;
28481;SDS011;15703;49.588;6.260;2023-03-21T05:11:16;10.40;;;6.87;;
28481;SDS011;15703;49.588;6.260;2023-03-21T05:13:39;10.90;;;6.07;;
28481;SDS011;15703;49.588;6.260;2023-03-21T05:16:01;7.83;;;6.20;;
28481;SDS011;15703;49.588;6.260;2023-03-21T05:18:24;9.03;;;6.30;;
28481;SDS011;15703;49.588;6.260;2023-03-21T05:21:09;12.23;;;6.60;;
28481;SDS011;15703;49.588;6.260;2023-03-21T05:23:33;12.23;;;6.60;;
28481;SDS011;15703;49.588;6.260;2023-03-21T05:25:58;7.23;;;6.10;;
28481;SDS011;15703;49.588;6.260;2023-03-21T05:28:30;8.77;;;6.00;;
28481;SDS011;15703;49.588;6.260;2023-03-21T05:30:57;10.17;;;6.47;;
28481;SDS011;15703;49.588;6.260;2023-03-21T05:33:20;7.90;;;5.87;;
28481;SDS011;15703;49.588;6.260;2023-03-21T05:35:42;8.47;;;5.70;;
28481;SDS011;15703;49.588;6.260;2023-03-21T05:38:06;9.97;;;5.90;;
28481;SDS011;15703;49.588;6.260;2023-03-21T05:40:39;9.17;;;5.93;;
28481;SDS011;15703;49.588;6.260;2023-03-21T05:43:02;10.10;;;5.60;;
28481;SDS011;15703;49.588;6.260;2023-03-21T05:45:24;8.53;;;6.10;;
28481;SDS011;15703;49.588;6.260;2023-03-21T05:47:48;8.00;;;5.77;;
28481;SDS011;15703;49.588;6.260;2023-03-21T05:50:12;9.03;;;5.97;;
28481;SDS011;15703;49.588;6.260;2023-03-21T05:52:38;9.03;;;6.17;;
28481;SDS011;15703;49.588;6.260;2023-03-21T05:55:05;8.37;;;6.33;;
28481;SDS011;15703;49.588;6.260;2023-03-21T05:57:28;9.30;;;6.70;;
28481;SDS011;15703;49.588;6.260;2023-03-21T05:59:56;10.87;;;6.27;;
28481;SDS011;15703;49.588;6.260;2023-03-21T06:02:20;10.40;;;6.13;;
28481;SDS011;15703;49.588;6.260;2023-03-21T06:04:43;7.53;;;6.13;;
28481;SDS011;15703;49.588;6.260;2023-03-21T06:07:05;10.77;;;6.83;;
28481;SDS011;15703;49.588;6.260;2023-03-21T06:09:28;10.53;;;6.10;;
28481;SDS011;15703;49.588;6.260;2023-03-21T06:11:54;9.70;;;6.90;;
28481;SDS011;15703;49.588;6.260;2023-03-21T06:14:24;8.20;;;6.83;;
28481;SDS011;15703;49.588;6.260;2023-03-21T06:17:09;11.80;;;6.87;;
28481;SDS011;15703;49.588;6.260;2023-03-21T06:19:38;11.77;;;6.87;;
28481;SDS011;15703;49.588;6.260;2023-03-21T06:22:05;7.67;;;6.27;;
28481;SDS011;15703;49.588;6.260;2023-03-21T06:24:30;9.17;;;6.83;;
28481;SDS011;15703;49.588;6.260;2023-03-21T06:26:53;12.77;;;6.43;;
28481;SDS011;15703;49.588;6.260;2023-03-21T06:29:17;7.83;;;5.80;;
28481;SDS011;15703;49.588;6.260;2023-03-21T06:31:42;10.37;;;5.97;;
28481;SDS011;15703;49.588;6.260;2023-03-21T06:34:05;9.13;;;6.07;;
28481;SDS011;15703;49.588;6.260;2023-03-21T06:36:27;7.53;;;5.77;;
28481;SDS011;15703;49.588;6.260;2023-03-21T06:38:50;7.63;;;5.40;;
28481;SDS011;15703;49.588;6.260;2023-03-21T06:41:12;9.43;;;6.13;;
28481;SDS011;15703;49.588;6.260;2023-03-21T06:43:38;8.00;;;5.90;;
28481;SDS011;15703;49.588;6.260;2023-03-21T06:46:01;6.43;;;5.33;;
28481;SDS011;15703;49.588;6.260;2023-03-21T06:48:24;8.90;;;6.00;;
28481;SDS011;15703;49.588;6.260;2023-03-21T06:50:48;6.77;;;5.50;;
28481;SDS011;15703;49.588;6.260;2023-03-21T06:53:12;8.87;;;6.47;;
28481;SDS011;15703;49.588;6.260;2023-03-21T06:55:54;10.80;;;5.50;;
28481;SDS011;15703;49.588;6.260;2023-03-21T06:58:17;6.73;;;5.60;;
28481;SDS011;15703;49.588;6.260;2023-03-21T07:00:40;8.33;;;5.43;;
28481;SDS011;15703;49.588;6.260;2023-03-21T07:03:02;5.90;;;5.27;;
28481;SDS011;15703;49.588;6.260;2023-03-21T07:05:24;6.63;;;5.60;;
28481;SDS011;15703;49.588;6.260;2023-03-21T07:07:47;9.87;;;5.53;;
28481;SDS011;15703;49.588;6.260;2023-03-21T07:10:09;7.00;;;5.40;;
28481;SDS011;15703;49.588;6.260;2023-03-21T07:12:40;10.53;;;5.40;;
28481;SDS011;15703;49.588;6.260;2023-03-21T07:15:14;9.07;;;5.53;;
28481;SDS011;15703;49.588;6.260;2023-03-21T07:17:39;11.73;;;5.30;;
28481;SDS011;15703;49.588;6.260;2023-03-21T07:20:02;7.40;;;5.33;;
28481;SDS011;15703;49.588;6.260;2023-03-21T07:22:28;7.70;;;5.30;;
28481;SDS011;15703;49.588;6.260;2023-03-21T07:24:51;8.43;;;4.67;;
28481;SDS011;15703;49.588;6.260;2023-03-21T07:27:26;7.93;;;5.77;;
28481;SDS011;15703;49.588;6.260;2023-03-21T07:29:49;7.27;;;4.67;;
28481;SDS011;15703;49.588;6.260;2023-03-21T07:32:11;10.87;;;4.73;;
28481;SDS011;15703;49.588;6.260;2023-03-21T07:34:34;7.83;;;5.00;;
28481;SDS011;15703;49.588;6.260;2023-03-21T07:36:57;7.57;;;5.07;;
28481;SDS011;15703;49.588;6.260;2023-03-21T07:39:20;8.67;;;5.37;;
28481;SDS011;15703;49.588;6.260;2023-03-21T07:41:45;6.03;;;4.73;;
28481;SDS011;15703;49.588;6.260;2023-03-21T07:44:23;9.73;;;5.40;;
28481;SDS011;15703;49.588;6.260;2023-03-21T07:46:55;8.80;;;5.10;;
28481;SDS011;15703;49.588;6.260;2023-03-21T07:49:18;6.33;;;5.10;;
28481;SDS011;15703;49.588;6.260;2023-03-21T07:51:40;8.83;;;6.00;;
28481;SDS011;15703;49.588;6.260;2023-03-21T07:54:02;7.97;;;5.13;;
28481;SDS011;15703;49.588;6.260;2023-03-21T07:56:25;5.73;;;5.10;;
28481;SDS011;15703;49.588;6.260;2023-03-21T07:58:47;7.37;;;4.90;;
28481;SDS011;15703;49.588;6.260;2023-03-21T08:01:09;8.40;;;5.43;;
28481;SDS011;15703;49.588;6.260;2023-03-21T08:03:31;8.40;;;5.90;;
28481;SDS011;15703;49.588;6.260;2023-03-21T08:05:54;7.57;;;5.93;;
28481;SDS011;15703;49.588;6.260;2023-03-21T08:08:17;6.63;;;5.30;;
28481;SDS011;15703;49.588;6.260;2023-03-21T08:10:40;9.43;;;5.47;;
28481;SDS011;15703;49.588;6.260;2023-03-21T08:13:03;6.77;;;5.37;;
28481;SDS011;15703;49.588;6.260;2023-03-21T08:15:26;9.23;;;5.33;;
28481;SDS011;15703;49.588;6.260;2023-03-21T08:17:48;7.80;;;5.30;;
28481;SDS011;15703;49.588;6.260;2023-03-21T08:20:12;12.67;;;5.83;;
28481;SDS011;15703;49.588;6.260;2023-03-21T08:22:36;9.83;;;5.20;;
28481;SDS011;15703;49.588;6.260;2023-03-21T08:24:58;7.57;;;5.03;;
28481;SDS011;15703;49.588;6.260;2023-03-21T08:27:20;16.40;;;7.03;;
28481;SDS011;15703;49.588;6.260;2023-03-21T08:29:43;109.03;;;17.47;;
28481;SDS011;15703;49.588;6.260;2023-03-21T08:32:05;12.50;;;6.10;;
28481;SDS011;15703;49.588;6.260;2023-03-21T08:34:28;8.50;;;4.90;;
28481;SDS011;15703;49.588;6.260;2023-03-21T08:36:50;9.70;;;5.83;;
28481;SDS011;15703;49.588;6.260;2023-03-21T08:39:12;8.63;;;5.30;;
28481;SDS011;15703;49.588;6.260;2023-03-21T08:41:35;7.23;;;5.27;;
28481;SDS011;15703;49.588;6.260;2023-03-21T08:43:58;10.13;;;5.93;;
28481;SDS011;15703;49.588;6.260;2023-03-21T08:46:20;6.97;;;5.53;;
28481;SDS011;15703;49.588;6.260;2023-03-21T08:48:42;11.93;;;5.30;;
28481;SDS011;15703;49.588;6.260;2023-03-21T08:51:05;8.60;;;6.07;;
28481;SDS011;15703;49.588;6.260;2023-03-21T08:53:27;8.57;;;5.93;;
28481;SDS011;15703;49.588;6.260;2023-03-21T08:55:53;7.90;;;5.93;;
28481;SDS011;15703;49.588;6.260;2023-03-21T08:58:16;10.37;;;5.90;;
28481;SDS011;15703;49.588;6.260;2023-03-21T09:00:38;10.27;;;5.77;;
28481;SDS011;15703;49.588;6.260;2023-03-21T09:03:00;11.10;;;5.90;;
28481;SDS011;15703;49.588;6.260;2023-03-21T09:05:25;8.90;;;5.83;;
28481;SDS011;15703;49.588;6.260;2023-03-21T09:07:48;10.13;;;5.50;;
28481;SDS011;15703;49.588;6.260;2023-03-21T09:10:12;7.10;;;5.43;;
28481;SDS011;15703;49.588;6.260;2023-03-21T09:12:42;7.93;;;5.47;;
28481;SDS011;15703;49.588;6.260;2023-03-21T09:15:07;9.20;;;5.87;;
28481;SDS011;15703;49.588;6.260;2023-03-21T09:17:59;8.83;;;5.67;;
28481;SDS011;15703;49.588;6.260;2023-03-21T09:20:35;9.33;;;5.90;;
28481;SDS011;15703;49.588;6.260;2023-03-21T09:22:58;8.90;;;6.07;;
28481;SDS011;15703;49.588;6.260;2023-03-21T09:25:22;8.30;;;5.80;;
28481;SDS011;15703;49.588;6.260;2023-03-21T09:27:51;7.07;;;5.37;;
28481;SDS011;15703;49.588;6.260;2023-03-21T09:30:15;9.20;;;6.00;;
28481;SDS011;15703;49.588;6.260;2023-03-21T09:33:05;10.27;;;5.97;;
28481;SDS011;15703;49.588;6.260;2023-03-21T09:35:33;10.80;;;6.13;;
28481;SDS011;15703;49.588;6.260;2023-03-21T09:37:57;7.37;;;5.93;;
28481;SDS011;15703;49.588;6.260;2023-03-21T09:40:36;10.70;;;6.47;;
28481;SDS011;15703;49.588;6.260;2023-03-21T09:43:06;10.80;;;5.87;;
28481;SDS011;15703;49.588;6.260;2023-03-21T09:45:34;8.37;;;6.17;;
28481;SDS011;15703;49.588;6.260;2023-03-21T09:47:59;6.73;;;5.97;;
28481;SDS011;15703;49.588;6.260;2023-03-21T09:54:04;10.73;;;5.73;;
28481;SDS011;15703;49.588;6.260;2023-03-21T09:56:28;8.90;;;5.87;;
28481;SDS011;15703;49.588;6.260;2023-03-21T09:58:53;13.20;;;6.20;;
28481;SDS011;15703;49.588;6.260;2023-03-21T10:01:38;11.90;;;5.63;;
28481;SDS011;15703;49.588;6.260;2023-03-21T10:04:06;9.83;;;6.60;;
28481;SDS011;15703;49.588;6.260;2023-03-21T10:06:29;16.17;;;7.57;;
28481;SDS011;15703;49.588;6.260;2023-03-21T10:08:53;16.43;;;7.10;;
28481;SDS011;15703;49.588;6.260;2023-03-21T10:11:21;12.53;;;6.87;;
28481;SDS011;15703;49.588;6.260;2023-03-21T10:13:50;20.30;;;8.53;;
28481;SDS011;15703;49.588;6.260;2023-03-21T10:16:15;10.17;;;7.20;;
28481;SDS011;15703;49.588;6.260;2023-03-21T10:18:39;9.67;;;6.17;;
28481;SDS011;15703;49.588;6.260;2023-03-21T10:21:02;9.93;;;6.90;;
28481;SDS011;15703;49.588;6.260;2023-03-21T10:23:26;10.00;;;6.60;;
28481;SDS011;15703;49.588;6.260;2023-03-21T10:26:01;11.23;;;6.80;;
28481;SDS011;15703;49.588;6.260;2023-03-21T10:28:30;10.43;;;7.13;;
28481;SDS011;15703;49.588;6.260;2023-03-21T10:31:13;10.77;;;8.10;;
28481;SDS011;15703;49.588;6.260;2023-03-21T10:33:38;12.10;;;7.47;;
28481;SDS011;15703;49.588;6.260;2023-03-21T10:36:24;10.23;;;7.30;;
28481;SDS011;15703;49.588;6.260;2023-03-21T10:38:49;11.60;;;7.57;;
28481;SDS011;15703;49.588;6.260;2023-03-21T10:41:12;11.30;;;7.37;;
28481;SDS011;15703;49.588;6.260;2023-03-21T10:43:36;10.57;;;7.60;;
28481;SDS011;15703;49.588;6.260;2023-03-21T10:46:02;11.10;;;7.60;;
28481;SDS011;15703;49.588;6.260;2023-03-21T10:48:26;11.03;;;7.60;;
28481;SDS011;15703;49.588;6.260;2023-03-21T10:50:56;11.40;;;7.13;;
28481;SDS011;15703;49.588;6.260;2023-03-21T10:55:59;12.30;;;7.10;;
28481;SDS011;15703;49.588;6.260;2023-03-21T10:58:26;13.23;;;7.47;;
28481;SDS011;15703;49.588;6.260;2023-03-21T11:00:53;11.13;;;8.00;;
28481;SDS011;15703;49.588;6.260;2023-03-21T11:03:21;11.07;;;7.20;;
28481;SDS011;15703;49.588;6.260;2023-03-21T11:05:44;11.50;;;7.10;;
28481;SDS011;15703;49.588;6.260;2023-03-21T11:08:14;10.37;;;7.40;;
28481;SDS011;15703;49.588;6.260;2023-03-21T11:10:37;12.33;;;7.90;;
28481;SDS011;15703;49.588;6.260;2023-03-21T11:16:06;12.57;;;7.90;;
28481;SDS011;15703;49.588;6.260;2023-03-21T11:18:30;9.97;;;7.50;;
28481;SDS011;15703;49.588;6.260;2023-03-21T11:20:57;11.53;;;7.90;;
28481;SDS011;15703;49.588;6.260;2023-03-21T11:23:20;8.67;;;7.13;;
28481;SDS011;15703;49.588;6.260;2023-03-21T11:25:43;11.93;;;7.40;;
28481;SDS011;15703;49.588;6.260;2023-03-21T11:28:10;9.77;;;6.90;;
28481;SDS011;15703;49.588;6.260;2023-03-21T11:30:33;11.07;;;7.13;;
28481;SDS011;15703;49.588;6.260;2023-03-21T11:32:56;10.10;;;6.90;;
28481;SDS011;15703;49.588;6.260;2023-03-21T11:35:20;10.43;;;7.67;;
28481;SDS011;15703;49.588;6.260;2023-03-21T11:37:45;12.70;;;8.00;;
28481;SDS011;15703;49.588;6.260;2023-03-21T11:42:47;10.40;;;7.43;;
28481;SDS011;15703;49.588;6.260;2023-03-21T11:45:19;11.47;;;7.97;;
28481;SDS011;15703;49.588;6.260;2023-03-21T11:47:42;11.23;;;6.47;;
28481;SDS011;15703;49.588;6.260;2023-03-21T11:50:13;11.47;;;7.10;;
28481;SDS011;15703;49.588;6.260;2023-03-21T11:52:38;8.33;;;7.33;;
28481;SDS011;15703;49.588;6.260;2023-03-21T11:55:17;9.73;;;6.30;;
28481;SDS011;15703;49.588;6.260;2023-03-21T12:00:20;10.23;;;6.97;;
28481;SDS011;15703;49.588;6.260;2023-03-21T12:05:18;10.57;;;6.90;;
28481;SDS011;15703;49.588;6.260;2023-03-21T12:10:30;9.40;;;7.07;;
28481;SDS011;15703;49.588;6.260;2023-03-21T12:28:36;7.73;;;6.70;;
28481;SDS011;15703;49.588;6.260;2023-03-21T12:35:54;11.17;;;7.50;;
28481;SDS011;15703;49.588;6.260;2023-03-21T12:41:30;10.60;;;7.57;;
28481;SDS011;15703;49.588;6.260;2023-03-21T12:45:48;11.13;;;7.27;;
28481;SDS011;15703;49.588;6.260;2023-03-21T12:50:54;8.63;;;7.47;;
28481;SDS011;15703;49.588;6.260;2023-03-21T12:56:00;9.80;;;7.77;;
28481;SDS011;15703;49.588;6.260;2023-03-21T12:58:24;10.73;;;7.40;;
28481;SDS011;15703;49.588;6.260;2023-03-21T13:01:06;9.87;;;7.73;;
28481;SDS011;15703;49.588;6.260;2023-03-21T13:03:32;9.87;;;8.20;;
28481;SDS011;15703;49.588;6.260;2023-03-21T13:06:04;11.37;;;8.60;;
28481;SDS011;15703;49.588;6.260;2023-03-21T13:11:11;10.83;;;7.33;;
28481;SDS011;15703;49.588;6.260;2023-03-21T13:13:56;9.70;;;7.10;;
28481;SDS011;15703;49.588;6.260;2023-03-21T13:24:24;8.60;;;6.47;;
28481;SDS011;15703;49.588;6.260;2023-03-21T13:27:01;7.73;;;6.17;;
28481;SDS011;15703;49.588;6.260;2023-03-21T13:29:31;9.03;;;6.77;;
28481;SDS011;15703;49.588;6.260;2023-03-21T13:31:55;6.93;;;6.17;;
28481;SDS011;15703;49.588;6.260;2023-03-21T13:34:20;9.07;;;6.27;;
28481;SDS011;15703;49.588;6.260;2023-03-21T13:36:43;10.57;;;6.80;;
28481;SDS011;15703;49.588;6.260;2023-03-21T13:39:11;8.70;;;6.40;;
28481;SDS011;15703;49.588;6.260;2023-03-21T13:41:37;7.57;;;6.37;;
28481;SDS011;15703;49.588;6.260;2023-03-21T13:46:42;7.07;;;6.33;;
28481;SDS011;15703;49.588;6.260;2023-03-21T13:49:24;12.13;;;6.43;;
28481;SDS011;15703;49.588;6.260;2023-03-21T13:56:55;9.93;;;6.40;;
28481;SDS011;15703;49.588;6.260;2023-03-21T13:59:37;7.13;;;5.87;;
28481;SDS011;15703;49.588;6.260;2023-03-21T14:02:21;9.40;;;6.27;;
28481;SDS011;15703;49.588;6.260;2023-03-21T14:04:43;7.93;;;5.33;;
28481;SDS011;15703;49.588;6.260;2023-03-21T14:07:32;9.23;;;5.80;;
28481;SDS011;15703;49.588;6.260;2023-03-21T14:10:00;8.10;;;6.20;;
28481;SDS011;15703;49.588;6.260;2023-03-21T14:12:30;9.50;;;5.83;;
28481;SDS011;15703;49.588;6.260;2023-03-21T14:15:22;8.07;;;5.67;;
28481;SDS011;15703;49.588;6.260;2023-03-21T14:17:55;7.30;;;5.20;;
28481;SDS011;15703;49.588;6.260;2023-03-21T14:20:28;7.80;;;5.32;;
28481;SDS011;15703;49.588;6.260;2023-03-21T14:22:51;5.75;;;5.15;;
28481;SDS011;15703;49.588;6.260;2023-03-21T14:25:15;6.72;;;5.63;;
28481;SDS011;15703;49.588;6.260;2023-03-21T14:27:38;8.27;;;5.22;;
28481;SDS011;15703;49.588;6.260;2023-03-21T14:30:36;9.63;;;5.63;;
28481;SDS011;15703;49.588;6.260;2023-03-21T14:36:03;7.47;;;5.22;;
28481;SDS011;15703;49.588;6.260;2023-03-21T14:38:31;6.28;;;4.30;;
28481;SDS011;15703;49.588;6.260;2023-03-21T14:40:56;5.25;;;4.68;;
28481;SDS011;15703;49.588;6.260;2023-03-21T14:43:22;8.13;;;4.53;;
28481;SDS011;15703;49.588;6.260;2023-03-21T14:45:51;6.93;;;4.93;;
28481;SDS011;15703;49.588;6.260;2023-03-21T14:48:15;6.43;;;4.00;;
28481;SDS011;15703;49.588;6.260;2023-03-21T14:51:06;6.87;;;4.00;;
28481;SDS011;15703;49.588;6.260;2023-03-21T14:53:36;4.67;;;4.23;;
28481;SDS011;15703;49.588;6.260;2023-03-21T14:56:05;5.13;;;3.90;;
28481;SDS011;15703;49.588;6.260;2023-03-21T14:58:29;4.95;;;4.05;;
28481;SDS011;15703;49.588;6.260;2023-03-21T15:00:52;5.28;;;4.07;;
28481;SDS011;15703;49.588;6.260;2023-03-21T15:03:16;4.35;;;3.45;;
28481;SDS011;15703;49.588;6.260;2023-03-21T15:05:40;5.57;;;3.87;;
28481;SDS011;15703;49.588;6.260;2023-03-21T15:08:07;4.47;;;4.07;;
28481;SDS011;15703;49.588;6.260;2023-03-21T15:10:30;5.97;;;3.97;;
28481;SDS011;15703;49.588;6.260;2023-03-21T15:12:56;6.93;;;3.80;;
28481;SDS011;15703;49.588;6.260;2023-03-21T15:15:22;4.83;;;3.77;;
28481;SDS011;15703;49.588;6.260;2023-03-21T15:17:48;6.93;;;3.83;;
28481;SDS011;15703;49.588;6.260;2023-03-21T15:20:54;5.63;;;3.77;;
28481;SDS011;15703;49.588;6.260;2023-03-21T15:23:28;4.32;;;3.92;;
28481;SDS011;15703;49.588;6.260;2023-03-21T15:25:51;4.53;;;3.83;;
28481;SDS011;15703;49.588;6.260;2023-03-21T15:28:14;4.15;;;3.47;;
28481;SDS011;15703;49.588;6.260;2023-03-21T15:30:37;6.50;;;3.93;;
28481;SDS011;15703;49.588;6.260;2023-03-21T15:33:07;5.30;;;3.25;;
28481;SDS011;15703;49.588;6.260;2023-03-21T15:35:54;5.53;;;3.80;;
28481;SDS011;15703;49.588;6.260;2023-03-21T15:38:28;4.97;;;3.80;;
28481;SDS011;15703;49.588;6.260;2023-03-21T15:41:15;8.02;;;3.55;;
28481;SDS011;15703;49.588;6.260;2023-03-21T15:51:39;4.70;;;3.43;;
28481;SDS011;15703;49.588;6.260;2023-03-21T15:54:13;5.70;;;3.43;;
28481;SDS011;15703;49.588;6.260;2023-03-21T15:56:37;4.33;;;3.07;;
28481;SDS011;15703;49.588;6.260;2023-03-21T15:59:02;3.83;;;2.80;;
28481;SDS011;15703;49.588;6.260;2023-03-21T16:01:31;4.23;;;2.97;;
28481;SDS011;15703;49.588;6.260;2023-03-21T16:04:09;4.37;;;3.50;;
28481;SDS011;15703;49.588;6.260;2023-03-21T16:07:17;6.63;;;3.83;;
28481;SDS011;15703;49.588;6.260;2023-03-21T16:09:43;4.17;;;3.17;;
28481;SDS011;15703;49.588;6.260;2023-03-21T16:12:08;6.87;;;4.17;;
28481;SDS011;15703;49.588;6.260;2023-03-21T16:14:32;3.67;;;3.00;;
28481;SDS011;15703;49.588;6.260;2023-03-21T16:16:58;5.73;;;3.27;;
28481;SDS011;15703;49.588;6.260;2023-03-21T16:19:22;6.18;;;3.40;;
28481;SDS011;15703;49.588;6.260;2023-03-21T16:21:53;4.03;;;3.37;;
28481;SDS011;15703;49.588;6.260;2023-03-21T16:24:27;4.33;;;3.37;;
28481;SDS011;15703;49.588;6.260;2023-03-21T16:27:18;5.37;;;3.60;;
28481;SDS011;15703;49.588;6.260;2023-03-21T16:29:41;4.27;;;3.63;;
28481;SDS011;15703;49.588;6.260;2023-03-21T16:32:03;3.50;;;3.00;;
28481;SDS011;15703;49.588;6.260;2023-03-21T16:34:26;4.83;;;3.13;;
28481;SDS011;15703;49.588;6.260;2023-03-21T16:36:49;4.13;;;3.10;;
28481;SDS011;15703;49.588;6.260;2023-03-21T16:39:21;7.43;;;3.57;;
28481;SDS011;15703;49.588;6.260;2023-03-21T16:41:44;6.50;;;3.40;;